Latest Weather Observations for Scone Airport

IDN60801

Issued at 11:05 pm EST Thursday 24 April 2014 (issued every 30 minutes, with the page automatically refreshed every 10 minutes)

About weather observations | Map of weather stations | Latest weather observations for NSW | Other Formats
Station Details ID: 061363 Name: SCONE AIRPORT AWS Lat: -32.03 Lon: 150.83 Height: 221.4 m
Data from the previous 72 hours. | See also: Recent months at Scone Airport
Date/Time
EST
Temp
°C
App
Temp
°C
Dew
Point
Rel
Hum
%
Delta-T
°C
Wind Press
QNH
hPa
Press
MSL
hPa
Rain
since 9 am
mm
Dir
 
Spd
km/h
Gust
km/h
Spd
kts
Gust
kts
24/11:00pm 11.8 10.4 9.5 86 1.2 WNW 7 9 4 5 1016.5 - 0.0
24/10:30pm 13.0 13.1 10.2 83 1.5 NW 0 0 0 0 1016.6 - 0.0
24/10:00pm 13.3 11.8 10.5 83 1.5 NW 9 13 5 7 1016.5 - 0.0
24/09:30pm 13.3 13.5 10.5 83 1.5 CALM 0 0 0 0 1016.4 - 0.0
24/09:00pm 13.9 12.7 10.3 79 1.9 WNW 7 7 4 4 1016.1 1015.7 0.0
24/08:30pm 14.4 12.9 10.6 78 2.0 W 9 13 5 7 1015.9 - 0.0
24/08:00pm 15.6 15.6 9.9 69 3.0 CALM 0 6 0 3 1015.4 - 0.0
24/07:30pm 17.1 14.8 10.5 65 3.6 WNW 13 17 7 9 1015.0 - 0.0
24/07:00pm 17.5 16.1 9.7 60 4.1 N 7 13 4 7 1014.8 - 0.0
24/06:30pm 19.5 17.2 9.1 51 5.5 NW 11 13 6 7 1014.4 - 0.0
24/06:00pm 20.3 18.9 9.5 50 5.8 NNW 7 11 4 6 1014.0 1013.6 0.0
24/05:30pm 22.8 21.1 9.9 44 7.1 NNW 9 13 5 7 1013.6 - 0.0
24/05:00pm 25.0 23.0 10.1 39 8.3 NW 11 28 6 15 1013.5 - 0.0
24/04:30pm 25.1 23.8 9.8 38 8.5 NW 7 9 4 5 1013.2 - 0.0
24/04:00pm 26.7 25.5 10.4 36 9.2 NW 7 11 4 6 1013.1 - 0.0
24/03:30pm 28.0 25.3 8.8 30 10.6 NW 13 20 7 11 1012.9 - 0.0
24/03:00pm 27.9 24.5 9.2 31 10.4 WNW 17 24 9 13 1013.1 1012.7 0.0
24/02:30pm 28.0 23.8 9.8 32 10.3 NW 22 28 12 15 1013.0 - 0.0
24/02:00pm 27.8 23.3 10.1 33 10.0 NW 24 32 13 17 1013.2 - 0.0
24/01:30pm 28.2 23.6 10.9 34 9.9 WNW 26 37 14 20 1013.5 - 0.0
24/01:00pm 27.7 23.3 10.4 34 9.8 WNW 24 37 13 20 1013.6 - 0.0
24/12:30pm 27.7 23.9 11.3 36 9.5 WNW 22 32 12 17 1013.8 - 0.0
24/12:00pm 27.2 22.4 10.4 35 9.5 WNW 26 33 14 18 1014.2 1013.8 0.0
24/11:30am 26.6 21.1 10.7 37 9.0 NW 30 39 16 21 1014.8 - 0.0
24/11:00am 26.3 21.9 11.6 40 8.5 WNW 26 41 14 22 1015.2 - 0.0
24/10:30am 25.9 21.0 11.3 40 8.3 NW 28 35 15 19 1015.5 - 0.0
24/10:13am 25.6 20.0 11.4 41 8.1 NW 32 41 17 22 1015.6 - 0.0
24/10:00am 25.4 25.3 13.9 49 6.8 NNW 7 20 4 11 1015.7 - 0.0
24/09:30am 21.7 22.5 13.6 60 4.7 E 2 7 1 4 1015.9 - 0.0
24/09:00am 17.7 18.2 11.5 67 3.4 CALM 0 6 0 3 1016.2 1015.8 0.0
24/08:30am 15.5 16.3 12.6 83 1.6 CALM 0 0 0 0 1016.1 - 0.0
24/08:00am 13.0 13.7 12.2 95 0.4 CALM 0 0 0 0 1015.9 - 0.0
24/07:30am 11.2 11.5 11.0 99 0.1 CALM 0 0 0 0 1015.6 - 0.0
24/07:00am 7.9 7.4 7.8 99 0.0 CALM 0 0 0 0 1015.4 - 0.0
24/06:30am 7.0 6.2 6.6 97 0.2 CALM 0 0 0 0 1015.2 - 0.0
24/06:00am 7.7 7.1 7.3 97 0.2 CALM 0 0 0 0 1015.0 1014.6 0.0
24/05:30am 8.0 7.4 7.6 97 0.2 CALM 0 0 0 0 1014.8 - 0.0
24/05:00am 7.8 7.2 7.4 97 0.2 CALM 0 6 0 3 1014.7 - 0.0
24/04:30am 8.2 6.4 7.8 97 0.2 W 7 9 4 5 1014.7 - 0.0
24/04:00am 8.5 7.7 8.2 98 0.1 N 2 6 1 3 1014.8 - 0.0
24/03:30am 8.4 8.0 8.1 98 0.1 CALM 0 0 0 0 1014.7 - 0.0
24/03:00am 8.6 8.2 8.2 97 0.2 CALM 0 0 0 0 1014.7 1014.3 0.0
24/02:30am 8.4 7.9 7.8 96 0.3 CALM 0 6 0 3 1014.9 - 0.0
24/02:00am 9.1 8.8 8.5 96 0.3 CALM 0 0 0 0 1015.0 - 0.0
24/01:30am 9.2 7.6 8.6 96 0.3 WNW 7 9 4 5 1015.3 - 0.0
24/01:00am 9.6 9.3 8.8 95 0.4 CALM 0 0 0 0 1015.5 - 0.0
24/12:30am 9.5 9.1 8.1 91 0.7 CALM 0 0 0 0 1015.6 - 0.0
24/12:00am 10.3 9.0 9.1 92 0.6 W 6 7 3 4 1015.7 1015.3 0.0
 
Date/Time
EST
Temp
°C
App
Temp
°C
Dew
Point
Rel
Hum
%
Delta-T
°C
Wind Press
QNH
hPa
Press
MSL
hPa
Rain
since 9 am
mm
Dir
 
Spd
km/h
Gust
km/h
Spd
kts
Gust
kts
23/11:30pm 10.7 9.1 8.8 88 0.9 WSW 7 9 4 5 1015.8 - 0.0
23/11:00pm 11.1 10.9 9.0 87 1.1 CALM 0 0 0 0 1016.0 - 0.0
23/10:30pm 11.2 11.1 9.3 88 1.0 CALM 0 0 0 0 1016.1 - 0.0
23/10:00pm 11.3 11.1 9.2 87 1.1 CALM 0 0 0 0 1016.2 - 0.0
23/09:30pm 12.0 11.8 9.0 82 1.5 CALM 0 0 0 0 1016.2 - 0.0
23/09:00pm 12.5 12.4 9.3 81 1.6 CALM 0 0 0 0 1016.2 1015.8 0.0
23/08:30pm 13.1 13.1 9.9 81 1.7 CALM 0 0 0 0 1016.3 - 0.0
23/08:00pm 14.0 14.2 10.4 79 1.9 CALM 0 0 0 0 1016.1 - 0.0
23/07:30pm 14.7 13.6 10.7 77 2.1 WNW 7 11 4 6 1016.0 - 0.0
23/07:00pm 15.3 13.6 11.3 77 2.2 WNW 11 15 6 8 1015.8 - 0.0
23/06:30pm 16.7 17.0 11.0 69 3.1 CALM 0 2 0 1 1015.5 - 0.0
23/06:00pm 17.6 16.6 10.2 62 4.0 ENE 6 7 3 4 1015.2 1014.8 0.0
23/05:30pm 21.1 19.8 11.2 53 5.5 S 9 11 5 6 1015.0 - 0.0
23/05:00pm 23.2 21.7 11.9 49 6.4 S 11 13 6 7 1014.8 - 0.0
23/04:30pm 26.1 24.5 10.3 37 8.9 WSW 9 13 5 7 1014.5 - 0.0
23/04:00pm 27.0 24.8 9.4 33 9.8 W 11 15 6 8 1014.4 - 0.0
23/03:30pm 27.4 23.6 5.6 25 11.4 WNW 15 22 8 12 1014.4 - 0.0
23/03:00pm 27.3 23.5 7.7 29 10.6 NW 17 26 9 14 1014.4 1014.0 0.0
23/02:30pm 27.4 23.8 8.3 30 10.5 NW 17 24 9 13 1014.6 - 0.0
23/02:00pm 27.5 23.5 8.4 30 10.5 NW 19 28 10 15 1014.7 - 0.0
23/01:30pm 26.8 23.4 10.5 36 9.2 NW 19 30 10 16 1014.9 - 0.0
23/01:00pm 27.1 24.0 11.6 38 9.0 WNW 19 28 10 15 1015.2 - 0.0
23/12:30pm 26.2 22.9 10.8 38 8.7 WNW 19 24 10 13 1015.7 - 0.0
23/12:00pm 26.4 23.7 11.7 40 8.5 WNW 17 20 9 11 1016.1 1015.7 0.0
23/11:30am 26.1 23.0 12.2 42 8.1 NW 20 28 11 15 1016.6 - 0.0
23/11:00am 25.2 24.6 12.4 45 7.4 ESE 7 11 4 6 1017.1 - 0.0
23/10:30am 24.7 25.3 12.0 45 7.3 CALM 0 6 0 3 1017.5 - 0.0
23/10:00am 22.7 23.1 11.4 49 6.4 CALM 0 0 0 0 1017.8 - 0.0
23/09:30am 19.9 20.0 10.3 54 5.2 CALM 0 0 0 0 1017.9 - 0.0
23/09:00am 17.8 17.8 9.7 59 4.3 CALM 0 0 0 0 1018.1 1017.7 0.0
23/08:30am 15.5 15.4 9.4 67 3.2 CALM 0 0 0 0 1018.2 - 0.0
23/08:00am 13.1 13.0 9.4 78 1.9 CALM 0 0 0 0 1018.1 - 0.0
23/07:30am 10.5 10.3 8.9 90 0.8 CALM 0 0 0 0 1018.0 - 0.0
23/07:00am 8.6 7.7 7.8 95 0.4 WNW 2 7 1 4 1018.0 - 0.0
23/06:30am 7.9 6.4 6.8 93 0.5 WNW 4 7 2 4 1017.9 - 0.0
23/06:00am 7.9 6.0 6.5 91 0.6 WNW 6 7 3 4 1017.7 1017.3 0.0
23/05:30am 8.5 7.8 7.1 91 0.7 CALM 0 0 0 0 1017.7 - 0.0
23/05:00am 8.7 8.0 6.8 88 0.9 CALM 0 2 0 1 1017.6 - 0.0
23/04:30am 9.5 7.7 7.8 89 0.8 WNW 7 11 4 6 1017.5 - 0.0
23/04:00am 9.8 8.1 8.2 90 0.8 W 7 11 4 6 1017.4 - 0.0
23/03:30am 10.1 9.0 8.5 90 0.8 ENE 4 9 2 5 1017.3 - 0.0
23/03:00am 10.0 8.5 8.3 89 0.8 W 6 11 3 6 1017.4 1017.0 0.0
23/02:30am 9.9 9.3 7.2 83 1.3 CALM 0 0 0 0 1017.2 - 0.0
23/02:00am 11.1 9.3 8.1 82 1.5 ENE 7 11 4 6 1017.3 - 0.0
23/01:30am 12.4 10.0 8.7 78 1.9 NW 11 17 6 9 1017.5 - 0.0
23/01:00am 11.1 8.6 8.1 82 1.5 WNW 11 13 6 7 1017.8 - 0.0
23/12:30am 11.9 9.9 8.7 81 1.6 NNE 9 11 5 6 1017.8 - 0.0
23/12:00am 11.6 10.1 8.6 82 1.5 NW 6 13 3 7 1017.9 1017.5 0.0
 
Date/Time
EST
Temp
°C
App
Temp
°C
Dew
Point
Rel
Hum
%
Delta-T
°C
Wind Press
QNH
hPa
Press
MSL
hPa
Rain
since 9 am
mm
Dir
 
Spd
km/h
Gust
km/h
Spd
kts
Gust
kts
22/11:30pm 11.4 9.7 8.4 82 1.5 NNW 7 9 4 5 1018.0 - 0.0
22/11:00pm 11.6 9.9 8.5 81 1.5 N 7 11 4 6 1018.0 - 0.0
22/10:30pm 11.7 11.5 9.1 84 1.3 CALM 0 0 0 0 1018.3 - 0.0
22/10:00pm 11.8 10.4 8.8 82 1.5 NNE 6 9 3 5 1018.4 - 0.0
22/09:30pm 11.8 11.4 8.1 78 1.8 CALM 0 0 0 0 1018.3 - 0.0
22/09:00pm 13.1 12.8 8.6 74 2.3 CALM 0 0 0 0 1018.1 1017.7 0.0
22/08:30pm 13.8 11.8 8.6 71 2.6 W 9 11 5 6 1017.8 - 0.0
22/08:00pm 14.7 12.9 8.0 64 3.4 NW 7 9 4 5 1017.6 - 0.0
22/07:30pm 15.7 13.3 7.2 57 4.3 NW 9 9 5 5 1017.2 - 0.0
22/07:00pm 17.4 15.5 7.5 52 5.0 NNE 7 11 4 6 1017.2 - 0.0
22/06:30pm 18.0 16.2 7.1 49 5.5 NE 6 9 3 5 1016.9 - 0.0
22/06:00pm 18.8 17.3 6.6 45 6.1 W 4 9 2 5 1016.5 1016.1 0.0
22/05:30pm 20.5 17.7 6.8 41 7.0 SSW 11 15 6 8 1016.3 - 0.0
22/05:00pm 23.1 21.3 9.5 42 7.4 W 9 15 5 8 1016.0 - 0.0
22/04:30pm 24.5 22.8 10.0 40 8.1 NW 9 11 5 6 1015.9 - 0.0
22/04:00pm 24.7 21.6 9.0 37 8.6 NW 15 20 8 11 1016.0 - 0.0
22/03:30pm 25.4 22.3 8.8 35 9.1 NW 15 22 8 12 1016.2 - 0.0
22/03:00pm 25.3 21.2 7.9 33 9.3 NW 19 28 10 15 1016.3 1015.9 0.0
22/02:30pm 26.2 22.8 9.1 34 9.4 NW 17 24 9 13 1016.2 - 0.0
22/02:00pm 25.8 21.7 7.9 32 9.7 NW 19 26 10 14 1016.4 - 0.0
22/01:30pm 25.1 20.3 7.3 32 9.5 WNW 22 30 12 16 1016.5 - 0.0
22/01:00pm 25.1 21.0 7.7 33 9.3 WNW 19 26 10 14 1017.0 - 0.0
22/12:30pm 24.3 19.4 7.0 33 9.1 WNW 22 32 12 17 1017.5 - 0.0
22/12:00pm 24.7 18.9 6.4 31 9.5 WNW 26 37 14 20 1017.8 1017.4 0.0
22/11:30am 23.9 22.7 9.5 40 7.9 NNE 6 9 3 5 1018.4 - 0.0
22/11:00am 22.2 21.7 9.4 44 7.0 ENE 2 9 1 5 1019.0 - 0.0
22/10:30am 19.9 19.1 10.9 56 5.0 E 6 9 3 5 1019.4 - 0.0
22/10:00am 16.7 16.7 9.9 64 3.6 CALM 0 0 0 0 1019.7 - 0.0
22/09:30am 14.4 14.2 9.0 70 2.8 CALM 0 0 0 0 1019.8 - 0.0
22/09:00am 13.9 13.7 8.9 72 2.6 CALM 0 0 0 0 1020.1 1019.7 0.0
22/08:30am 11.9 11.3 8.9 82 1.5 ESE 2 6 1 3 1020.1 - 0.0
22/08:00am 9.1 8.9 9.0 99 0.0 CALM 0 0 0 0 1020.2 - 0.0
22/07:30am 6.5 5.7 6.4 99 0.0 CALM 0 0 0 0 1020.0 - 0.0
22/07:00am 5.4 4.3 5.3 99 0.0 CALM 0 0 0 0 1019.8 - 0.0
22/06:30am 3.3 1.8 2.9 97 0.2 CALM 0 0 0 0 1019.6 - 0.0
22/06:00am 3.5 0.7 3.1 97 0.2 W 7 7 4 4 1019.5 1019.1 0.0
22/05:30am 4.1 2.4 3.8 98 0.1 NE 2 7 1 4 1019.4 - 0.0
22/05:00am 4.5 3.2 4.2 98 0.1 CALM 0 0 0 0 1019.2 - 0.0
22/04:30am 4.3 3.0 3.9 97 0.2 CALM 0 0 0 0 1019.2 - 0.0
22/04:00am 4.6 2.2 4.2 97 0.2 WNW 6 7 3 4 1019.3 - 0.0
22/03:30am 4.7 2.3 4.3 97 0.2 WNW 6 7 3 4 1019.2 - 0.0
22/03:00am 5.0 3.0 4.4 96 0.3 WNW 4 7 2 4 1019.3 1018.9 0.0
22/02:30am 5.1 3.9 4.4 95 0.3 CALM 0 0 0 0 1019.7 - 0.0
22/02:00am 5.3 3.3 4.6 95 0.3 WNW 4 7 2 4 1019.8 - 0.0
22/01:30am 5.6 4.4 4.7 94 0.4 CALM 0 0 0 0 1019.9 - 0.0
22/01:00am 6.1 5.0 5.2 94 0.4 CALM 0 6 0 3 1020.0 - 0.0
22/12:30am 6.3 5.2 5.3 93 0.4 CALM 0 0 0 0 1020.2 - 0.0
22/12:00am 6.3 3.4 4.8 90 0.7 W 9 11 5 6 1020.2 1019.8 0.0
 
Date/Time
EST
Temp
°C
App
Temp
°C
Dew
Point
Rel
Hum
%
Delta-T
°C
Wind Press
QNH
hPa
Press
MSL
hPa
Rain
since 9 am
mm
Dir
 
Spd
km/h
Gust
km/h
Spd
kts
Gust
kts
21/11:30pm 8.1 6.1 6.4 89 0.8 NE 6 7 3 4 1020.4 - 0.0

Other Formats:

Comma delimited format used in spreadsheet applications
http://www.bom.gov.au/fwo/IDN60801/IDN60801.95758.axf

JavaScript Object Notation format (JSON) in row-major order
http://www.bom.gov.au/fwo/IDN60801/IDN60801.95758.json